Terminal Aerodrome Forecast
Issued by NWS North Platte, NE

Home | Current Version | Previous Version | Text Only | Print | Product List | Glossary Off
Versions: 1 2 3 4 5 6 7 8 9 10 11 12 13 14 15

000
FTUS43 KLBF 162320
TAFVTN
TAF
KVTN 162320Z 1700/1724 19016G23KT P6SM SCT200
     FM170600 22012KT P6SM SCT250
     FM170900 25009KT P6SM SCT200
     FM171000 27009KT P6SM BKN200
     FM171100 31009KT P6SM BKN200
     FM171500 33005KT P6SM BKN200=

USA.gov is the U.S. government's official web portal to all federal, state and local government web resources and services.